sensor_id;sensor_type;location;lat;lon;timestamp;pressure;altitude;pressure_sealevel;temperature;humidity
82858;BME280;72620;47.774;9.620;2023-09-07T00:02:13;96620.28;;;16.12;75.25
82858;BME280;72620;47.774;9.620;2023-09-07T00:04:40;96613.03;;;16.08;74.86
82858;BME280;72620;47.774;9.620;2023-09-07T00:07:07;96611.59;;;16.05;75.37
82858;BME280;72620;47.774;9.620;2023-09-07T00:09:34;96608.56;;;16.02;75.87
82858;BME280;72620;47.774;9.620;2023-09-07T00:12:01;96612.94;;;16.01;75.47
82858;BME280;72620;47.774;9.620;2023-09-07T00:14:28;96614.09;;;15.98;75.09
82858;BME280;72620;47.774;9.620;2023-09-07T00:16:55;96612.50;;;15.98;76.79
82858;BME280;72620;47.774;9.620;2023-09-07T00:19:24;96612.03;;;15.94;75.96
82858;BME280;72620;47.774;9.620;2023-09-07T00:21:51;96608.03;;;15.91;75.25
82858;BME280;72620;47.774;9.620;2023-09-07T00:24:18;96613.22;;;15.91;75.20
82858;BME280;72620;47.774;9.620;2023-09-07T00:26:45;96607.22;;;15.91;76.30
82858;BME280;72620;47.774;9.620;2023-09-07T00:29:12;96608.81;;;15.92;75.74
82858;BME280;72620;47.774;9.620;2023-09-07T00:31:40;96610.63;;;15.91;75.73
82858;BME280;72620;47.774;9.620;2023-09-07T00:34:08;96610.16;;;15.88;75.68
82858;BME280;72620;47.774;9.620;2023-09-07T00:36:35;96622.75;;;15.91;76.21
82858;BME280;72620;47.774;9.620;2023-09-07T00:39:03;96618.25;;;15.85;75.73
82858;BME280;72620;47.774;9.620;2023-09-07T00:41:30;96618.25;;;15.85;75.73
82858;BME280;72620;47.774;9.620;2023-09-07T00:43:57;96609.63;;;15.78;76.14
82858;BME280;72620;47.774;9.620;2023-09-07T00:46:25;96602.81;;;15.77;75.66
82858;BME280;72620;47.774;9.620;2023-09-07T00:48:52;96599.41;;;15.76;75.23
82858;BME280;72620;47.774;9.620;2023-09-07T00:51:19;96600.56;;;15.74;75.15
82858;BME280;72620;47.774;9.620;2023-09-07T00:53:47;96607.69;;;15.72;76.23
82858;BME280;72620;47.774;9.620;2023-09-07T00:56:15;96602.88;;;15.69;76.23
82858;BME280;72620;47.774;9.620;2023-09-07T00:58:43;96615.19;;;15.67;76.94
82858;BME280;72620;47.774;9.620;2023-09-07T01:01:10;96615.19;;;15.67;76.94
82858;BME280;72620;47.774;9.620;2023-09-07T01:03:38;96607.03;;;15.55;76.00
82858;BME280;72620;47.774;9.620;2023-09-07T01:06:22;96600.75;;;15.50;76.77
82858;BME280;72620;47.774;9.620;2023-09-07T01:09:00;96602.91;;;15.46;76.25
82858;BME280;72620;47.774;9.620;2023-09-07T01:11:37;96604.03;;;15.44;77.40
82858;BME280;72620;47.774;9.620;2023-09-07T01:14:05;96605.84;;;15.35;77.16
82858;BME280;72620;47.774;9.620;2023-09-07T01:16:33;96601.97;;;15.31;78.24
82858;BME280;72620;47.774;9.620;2023-09-07T01:19:01;96602.97;;;15.30;78.63
82858;BME280;72620;47.774;9.620;2023-09-07T01:21:37;96593.94;;;15.26;78.09
82858;BME280;72620;47.774;9.620;2023-09-07T01:24:09;96585.09;;;15.20;78.68
82858;BME280;72620;47.774;9.620;2023-09-07T01:26:38;96591.06;;;15.21;78.36
82858;BME280;72620;47.774;9.620;2023-09-07T01:29:09;96590.88;;;15.22;78.93
82858;BME280;72620;47.774;9.620;2023-09-07T01:31:37;96592.50;;;15.23;78.51
82858;BME280;72620;47.774;9.620;2023-09-07T01:34:05;96599.13;;;15.26;77.46
82858;BME280;72620;47.774;9.620;2023-09-07T01:36:33;96590.88;;;15.22;78.96
82858;BME280;72620;47.774;9.620;2023-09-07T01:39:02;96597.06;;;15.21;79.77
82858;BME280;72620;47.774;9.620;2023-09-07T01:41:32;96590.44;;;15.19;78.63
82858;BME280;72620;47.774;9.620;2023-09-07T01:44:00;96592.53;;;15.15;78.98
82858;BME280;72620;47.774;9.620;2023-09-07T01:46:27;96595.50;;;15.12;78.47
82858;BME280;72620;47.774;9.620;2023-09-07T01:48:55;96608.53;;;15.19;78.11
82858;BME280;72620;47.774;9.620;2023-09-07T01:51:22;96608.53;;;15.19;78.11
82858;BME280;72620;47.774;9.620;2023-09-07T01:53:49;96595.81;;;15.09;78.02
82858;BME280;72620;47.774;9.620;2023-09-07T01:56:16;96600.81;;;15.11;77.79
82858;BME280;72620;47.774;9.620;2023-09-07T01:58:44;96588.56;;;15.05;79.58
82858;BME280;72620;47.774;9.620;2023-09-07T02:01:31;96596.50;;;15.03;78.31
82858;BME280;72620;47.774;9.620;2023-09-07T02:04:00;96600.41;;;14.99;79.06
82858;BME280;72620;47.774;9.620;2023-09-07T02:06:28;96598.78;;;14.98;79.53
82858;BME280;72620;47.774;9.620;2023-09-07T02:08:55;96597.19;;;14.97;79.53
82858;BME280;72620;47.774;9.620;2023-09-07T02:11:22;96602.38;;;14.97;78.25
82858;BME280;72620;47.774;9.620;2023-09-07T02:13:49;96601.06;;;14.93;78.98
82858;BME280;72620;47.774;9.620;2023-09-07T02:16:16;96601.25;;;14.92;79.34
82858;BME280;72620;47.774;9.620;2023-09-07T02:18:48;96608.19;;;14.91;78.99
82858;BME280;72620;47.774;9.620;2023-09-07T02:21:17;96608.19;;;14.91;78.99
82858;BME280;72620;47.774;9.620;2023-09-07T02:23:44;96606.47;;;14.84;78.87
82858;BME280;72620;47.774;9.620;2023-09-07T02:26:11;96609.19;;;14.90;79.86
82858;BME280;72620;47.774;9.620;2023-09-07T02:28:38;96609.19;;;14.90;79.86
82858;BME280;72620;47.774;9.620;2023-09-07T02:31:06;96604.34;;;14.87;79.62
82858;BME280;72620;47.774;9.620;2023-09-07T02:33:35;96602.56;;;14.88;78.80
82858;BME280;72620;47.774;9.620;2023-09-07T02:36:03;96603.06;;;14.83;79.38
82858;BME280;72620;47.774;9.620;2023-09-07T02:38:30;96610.97;;;14.82;79.61
82858;BME280;72620;47.774;9.620;2023-09-07T02:40:58;96604.03;;;14.82;80.02
82858;BME280;72620;47.774;9.620;2023-09-07T02:43:25;96605.03;;;14.81;80.16
82858;BME280;72620;47.774;9.620;2023-09-07T02:45:53;96598.06;;;14.82;80.31
82858;BME280;72620;47.774;9.620;2023-09-07T02:48:20;96603.72;;;14.77;80.44
82858;BME280;72620;47.774;9.620;2023-09-07T02:50:48;96604.53;;;14.78;79.44
82858;BME280;72620;47.774;9.620;2023-09-07T02:53:17;96599.09;;;14.73;79.67
82858;BME280;72620;47.774;9.620;2023-09-07T02:55:44;96600.22;;;14.70;80.05
82858;BME280;72620;47.774;9.620;2023-09-07T02:58:11;96595.06;;;14.70;79.98
82858;BME280;72620;47.774;9.620;2023-09-07T03:00:42;96599.91;;;14.65;80.53
82858;BME280;72620;47.774;9.620;2023-09-07T03:03:14;96598.47;;;14.63;80.56
82858;BME280;72620;47.774;9.620;2023-09-07T03:05:43;96601.50;;;14.66;81.09
82858;BME280;72620;47.774;9.620;2023-09-07T03:08:10;96601.50;;;14.66;81.09
82858;BME280;72620;47.774;9.620;2023-09-07T03:10:38;96596.72;;;14.55;81.06
82858;BME280;72620;47.774;9.620;2023-09-07T03:13:07;96596.25;;;14.51;82.64
82858;BME280;72620;47.774;9.620;2023-09-07T03:15:35;96599.34;;;14.47;80.32
82858;BME280;72620;47.774;9.620;2023-09-07T03:18:02;96600.28;;;14.46;81.08
82858;BME280;72620;47.774;9.620;2023-09-07T03:20:33;96600.47;;;14.44;81.49
82858;BME280;72620;47.774;9.620;2023-09-07T03:23:01;96600.47;;;14.44;81.41
82858;BME280;72620;47.774;9.620;2023-09-07T03:25:29;96599.38;;;14.39;81.12
82858;BME280;72620;47.774;9.620;2023-09-07T03:27:56;96606.81;;;14.34;81.12
82858;BME280;72620;47.774;9.620;2023-09-07T03:30:23;96606.47;;;14.29;82.61
82858;BME280;72620;47.774;9.620;2023-09-07T03:32:50;96608.72;;;14.24;81.81
82858;BME280;72620;47.774;9.620;2023-09-07T03:35:18;96602.09;;;14.21;82.65
82858;BME280;72620;47.774;9.620;2023-09-07T03:37:45;96597.28;;;14.18;83.87
82858;BME280;72620;47.774;9.620;2023-09-07T03:40:12;96599.69;;;14.20;82.49
82858;BME280;72620;47.774;9.620;2023-09-07T03:42:39;96607.44;;;14.20;82.94
82858;BME280;72620;47.774;9.620;2023-09-07T03:45:06;96605.84;;;14.19;82.29
82858;BME280;72620;47.774;9.620;2023-09-07T03:47:33;96619.72;;;14.18;82.55
82858;BME280;72620;47.774;9.620;2023-09-07T03:50:01;96616.50;;;14.16;82.87
82858;BME280;72620;47.774;9.620;2023-09-07T03:52:28;96622.78;;;14.13;83.68
82858;BME280;72620;47.774;9.620;2023-09-07T03:54:56;96618.59;;;14.12;83.55
82858;BME280;72620;47.774;9.620;2023-09-07T03:57:25;96616.19;;;14.11;83.21
82858;BME280;72620;47.774;9.620;2023-09-07T03:59:53;96626.81;;;14.08;82.47
82858;BME280;72620;47.774;9.620;2023-09-07T04:02:23;96617.78;;;14.04;82.41
82858;BME280;72620;47.774;9.620;2023-09-07T04:04:52;96624.44;;;13.98;82.44
82858;BME280;72620;47.774;9.620;2023-09-07T04:07:21;96618.13;;;13.93;82.77
82858;BME280;72620;47.774;9.620;2023-09-07T04:09:50;96624.59;;;13.89;83.33
82858;BME280;72620;47.774;9.620;2023-09-07T04:12:17;96620.25;;;13.89;84.33
82858;BME280;72620;47.774;9.620;2023-09-07T04:14:44;96618.78;;;13.87;83.48
82858;BME280;72620;47.774;9.620;2023-09-07T04:17:11;96623.94;;;13.87;83.71
82858;BME280;72620;47.774;9.620;2023-09-07T04:19:39;96623.13;;;13.86;83.83
82858;BME280;72620;47.774;9.620;2023-09-07T04:22:06;96626.84;;;13.83;83.42
82858;BME280;72620;47.774;9.620;2023-09-07T04:24:33;96623.44;;;13.83;83.81
82858;BME280;72620;47.774;9.620;2023-09-07T04:27:01;96620.09;;;13.82;84.51
82858;BME280;72620;47.774;9.620;2023-09-07T04:29:29;96628.59;;;13.83;84.50
82858;BME280;72620;47.774;9.620;2023-09-07T04:31:56;96626.69;;;13.77;83.80
82858;BME280;72620;47.774;9.620;2023-09-07T04:34:23;96619.75;;;13.77;84.53
82858;BME280;72620;47.774;9.620;2023-09-07T04:36:51;96619.94;;;13.76;84.93
82858;BME280;72620;47.774;9.620;2023-09-07T04:39:19;96620.72;;;13.76;84.88
82858;BME280;72620;47.774;9.620;2023-09-07T04:41:46;96612.03;;;13.77;84.68
82858;BME280;72620;47.774;9.620;2023-09-07T04:44:13;96623.16;;;13.78;84.19
82858;BME280;72620;47.774;9.620;2023-09-07T04:46:41;96625.72;;;13.78;84.16
82858;BME280;72620;47.774;9.620;2023-09-07T04:49:08;96618.00;;;13.78;84.85
82858;BME280;72620;47.774;9.620;2023-09-07T04:51:35;96628.13;;;13.79;84.99
82858;BME280;72620;47.774;9.620;2023-09-07T04:54:02;96626.53;;;13.78;84.61
82858;BME280;72620;47.774;9.620;2023-09-07T04:56:30;96630.53;;;13.81;84.16
82858;BME280;72620;47.774;9.620;2023-09-07T04:58:57;96629.41;;;13.83;85.01
82858;BME280;72620;47.774;9.620;2023-09-07T05:01:24;96628.13;;;13.88;84.18
82858;BME280;72620;47.774;9.620;2023-09-07T05:03:51;96625.88;;;13.93;83.68
82858;BME280;72620;47.774;9.620;2023-09-07T05:06:18;96632.47;;;13.95;84.80
82858;BME280;72620;47.774;9.620;2023-09-07T05:08:45;96640.06;;;13.97;83.99
82858;BME280;72620;47.774;9.620;2023-09-07T05:11:12;96643.31;;;13.99;83.45
82858;BME280;72620;47.774;9.620;2023-09-07T05:13:40;96640.72;;;13.99;84.44
82858;BME280;72620;47.774;9.620;2023-09-07T05:16:07;96645.88;;;13.99;82.86
82858;BME280;72620;47.774;9.620;2023-09-07T05:18:34;96641.50;;;13.99;83.90
82858;BME280;72620;47.774;9.620;2023-09-07T05:21:14;96639.44;;;14.03;82.72
82858;BME280;72620;47.774;9.620;2023-09-07T05:23:42;96642.66;;;14.05;83.65
82858;BME280;72620;47.774;9.620;2023-09-07T05:26:10;96641.66;;;14.06;82.40
82858;BME280;72620;47.774;9.620;2023-09-07T05:28:40;96649.91;;;14.09;83.42
82858;BME280;72620;47.774;9.620;2023-09-07T05:31:08;96653.44;;;14.16;83.52
82858;BME280;72620;47.774;9.620;2023-09-07T05:33:36;96653.44;;;14.16;83.52
82858;BME280;72620;47.774;9.620;2023-09-07T05:36:03;96653.75;;;14.13;81.80
82858;BME280;72620;47.774;9.620;2023-09-07T05:38:30;96653.75;;;14.13;82.67
82858;BME280;72620;47.774;9.620;2023-09-07T05:41:00;96661.69;;;14.12;83.61
82858;BME280;72620;47.774;9.620;2023-09-07T05:43:27;96654.72;;;14.12;82.03
82858;BME280;72620;47.774;9.620;2023-09-07T05:45:55;96665.38;;;14.17;82.45
82858;BME280;72620;47.774;9.620;2023-09-07T05:48:22;96658.59;;;14.16;81.63
82858;BME280;72620;47.774;9.620;2023-09-07T05:50:49;96659.25;;;14.18;81.85
82858;BME280;72620;47.774;9.620;2023-09-07T05:53:18;96666.81;;;14.20;81.70
82858;BME280;72620;47.774;9.620;2023-09-07T05:55:47;96665.88;;;14.21;81.57
82858;BME280;72620;47.774;9.620;2023-09-07T05:58:14;96663.13;;;14.22;81.76
82858;BME280;72620;47.774;9.620;2023-09-07T06:00:42;96655.19;;;14.24;81.12
82858;BME280;72620;47.774;9.620;2023-09-07T06:03:10;96665.53;;;14.24;81.67
82858;BME280;72620;47.774;9.620;2023-09-07T06:05:38;96664.56;;;14.25;82.03
82858;BME280;72620;47.774;9.620;2023-09-07T06:08:06;96668.44;;;14.29;81.26
82858;BME280;72620;47.774;9.620;2023-09-07T06:10:34;96667.31;;;14.31;80.82
82858;BME280;72620;47.774;9.620;2023-09-07T06:13:01;96662.63;;;14.35;82.26
82858;BME280;72620;47.774;9.620;2023-09-07T06:15:30;96664.56;;;14.41;81.63
82858;BME280;72620;47.774;9.620;2023-09-07T06:17:57;96667.31;;;14.47;81.03
82858;BME280;72620;47.774;9.620;2023-09-07T06:20:25;96660.19;;;14.49;80.63
82858;BME280;72620;47.774;9.620;2023-09-07T06:22:52;96652.91;;;14.53;80.29
82858;BME280;72620;47.774;9.620;2023-09-07T06:25:19;96663.22;;;14.61;79.89
82858;BME280;72620;47.774;9.620;2023-09-07T06:27:48;96663.69;;;14.65;80.46
82858;BME280;72620;47.774;9.620;2023-09-07T06:30:15;96662.38;;;14.69;79.18
82858;BME280;72620;47.774;9.620;2023-09-07T06:32:43;96657.34;;;14.75;79.64
82858;BME280;72620;47.774;9.620;2023-09-07T06:35:10;96658.66;;;14.79;79.45
82858;BME280;72620;47.774;9.620;2023-09-07T06:37:37;96661.88;;;14.81;78.69
82858;BME280;72620;47.774;9.620;2023-09-07T06:40:08;96650.84;;;14.87;78.66
82858;BME280;72620;47.774;9.620;2023-09-07T06:42:37;96650.34;;;14.92;78.19
82858;BME280;72620;47.774;9.620;2023-09-07T06:45:05;96648.09;;;14.97;78.68
82858;BME280;72620;47.774;9.620;2023-09-07T06:47:32;96652.75;;;15.01;79.41
82858;BME280;72620;47.774;9.620;2023-09-07T06:50:02;96659.38;;;15.04;78.65
82858;BME280;72620;47.774;9.620;2023-09-07T06:52:29;96654.31;;;15.10;78.03
82858;BME280;72620;47.774;9.620;2023-09-07T06:54:56;96666.19;;;15.27;77.01
82858;BME280;72620;47.774;9.620;2023-09-07T06:57:23;96671.66;;;15.33;77.09
82858;BME280;72620;47.774;9.620;2023-09-07T06:59:50;96671.66;;;15.33;77.09
82858;BME280;72620;47.774;9.620;2023-09-07T07:02:18;96662.91;;;15.34;77.18
82858;BME280;72620;47.774;9.620;2023-09-07T07:04:45;96661.88;;;15.43;76.14
82858;BME280;72620;47.774;9.620;2023-09-07T07:07:13;96660.75;;;15.53;76.72
82858;BME280;72620;47.774;9.620;2023-09-07T07:09:40;96668.66;;;15.97;74.83
82858;BME280;72620;47.774;9.620;2023-09-07T07:12:07;96667.75;;;16.27;73.20
82858;BME280;72620;47.774;9.620;2023-09-07T07:14:34;96662.91;;;16.39;72.51
82858;BME280;72620;47.774;9.620;2023-09-07T07:17:01;96665.91;;;16.50;73.83
82858;BME280;72620;47.774;9.620;2023-09-07T07:19:31;96671.50;;;16.77;71.41
82858;BME280;72620;47.774;9.620;2023-09-07T07:22:00;96673.78;;;17.01;70.85
82858;BME280;72620;47.774;9.620;2023-09-07T07:24:27;96675.47;;;17.08;71.19
82858;BME280;72620;47.774;9.620;2023-09-07T07:26:54;96674.69;;;17.08;70.60
82858;BME280;72620;47.774;9.620;2023-09-07T07:29:21;96662.25;;;17.03;71.55
82858;BME280;72620;47.774;9.620;2023-09-07T07:31:49;96666.63;;;17.03;71.40
82858;BME280;72620;47.774;9.620;2023-09-07T07:34:16;96682.63;;;17.06;71.38
82858;BME280;72620;47.774;9.620;2023-09-07T07:36:43;96675.94;;;17.12;71.41
82858;BME280;72620;47.774;9.620;2023-09-07T07:39:10;96681.16;;;17.33;70.99
82858;BME280;72620;47.774;9.620;2023-09-07T07:41:38;96682.28;;;17.45;70.33
82858;BME280;72620;47.774;9.620;2023-09-07T07:44:07;96688.44;;;17.44;70.69
82858;BME280;72620;47.774;9.620;2023-09-07T07:46:35;96687.66;;;18.22;68.04
82858;BME280;72620;47.774;9.620;2023-09-07T07:49:03;96687.66;;;18.22;68.04
82858;BME280;72620;47.774;9.620;2023-09-07T07:51:30;96681.13;;;18.32;67.17
82858;BME280;72620;47.774;9.620;2023-09-07T07:53:57;96675.06;;;18.25;68.17
82858;BME280;72620;47.774;9.620;2023-09-07T07:56:24;96670.38;;;18.35;67.82
82858;BME280;72620;47.774;9.620;2023-09-07T07:58:52;96673.63;;;18.44;67.74
82858;BME280;72620;47.774;9.620;2023-09-07T08:01:20;96679.78;;;18.64;68.84
82858;BME280;72620;47.774;9.620;2023-09-07T08:03:47;96676.69;;;19.22;65.77
82858;BME280;72620;47.774;9.620;2023-09-07T08:06:14;96676.69;;;19.22;65.77
82858;BME280;72620;47.774;9.620;2023-09-07T08:08:41;96666.56;;;19.40;65.35
82858;BME280;72620;47.774;9.620;2023-09-07T08:11:09;96668.31;;;19.33;65.12
82858;BME280;72620;47.774;9.620;2023-09-07T08:13:36;96670.09;;;19.26;65.69
82858;BME280;72620;47.774;9.620;2023-09-07T08:16:05;96660.69;;;19.25;65.86
82858;BME280;72620;47.774;9.620;2023-09-07T08:18:33;96668.47;;;19.19;67.00
82858;BME280;72620;47.774;9.620;2023-09-07T08:21:02;96660.44;;;19.14;66.72
82858;BME280;72620;47.774;9.620;2023-09-07T08:23:29;96658.00;;;19.12;68.13
82858;BME280;72620;47.774;9.620;2023-09-07T08:25:56;96655.06;;;19.22;67.09
82858;BME280;72620;47.774;9.620;2023-09-07T08:28:25;96650.91;;;19.34;66.84
82858;BME280;72620;47.774;9.620;2023-09-07T08:30:53;96659.75;;;19.39;68.02
82858;BME280;72620;47.774;9.620;2023-09-07T08:33:22;96654.78;;;19.51;66.80
82858;BME280;72620;47.774;9.620;2023-09-07T08:35:53;96660.66;;;19.86;66.73
82858;BME280;72620;47.774;9.620;2023-09-07T08:38:22;96660.66;;;19.86;66.73
82858;BME280;72620;47.774;9.620;2023-09-07T08:40:55;96652.81;;;20.77;64.40
82858;BME280;72620;47.774;9.620;2023-09-07T08:43:29;96648.72;;;22.82;57.17
82858;BME280;72620;47.774;9.620;2023-09-07T08:46:09;96648.72;;;22.82;57.17
82858;BME280;72620;47.774;9.620;2023-09-07T08:48:42;96641.31;;;24.74;51.34
82858;BME280;72620;47.774;9.620;2023-09-07T08:51:12;96634.56;;;26.14;47.69
82858;BME280;72620;47.774;9.620;2023-09-07T08:53:41;96631.00;;;27.40;43.98
82858;BME280;72620;47.774;9.620;2023-09-07T08:56:13;96633.41;;;27.94;43.11
82858;BME280;72620;47.774;9.620;2023-09-07T08:58:42;96640.72;;;28.51;42.66
82858;BME280;72620;47.774;9.620;2023-09-07T09:01:11;96637.09;;;29.09;40.84
82858;BME280;72620;47.774;9.620;2023-09-07T09:03:40;96640.88;;;29.23;39.49
82858;BME280;72620;47.774;9.620;2023-09-07T09:06:10;96637.06;;;29.91;38.96
82858;BME280;72620;47.774;9.620;2023-09-07T09:08:46;96640.78;;;29.90;40.03
82858;BME280;72620;47.774;9.620;2023-09-07T09:11:17;96645.91;;;29.34;39.35
82858;BME280;72620;47.774;9.620;2023-09-07T09:13:46;96639.66;;;29.56;40.05
82858;BME280;72620;47.774;9.620;2023-09-07T09:16:15;96638.34;;;29.68;39.53
82858;BME280;72620;47.774;9.620;2023-09-07T09:18:53;96635.94;;;29.62;40.84
82858;BME280;72620;47.774;9.620;2023-09-07T09:21:24;96629.25;;;29.29;41.14
82858;BME280;72620;47.774;9.620;2023-09-07T09:23:55;96638.25;;;29.23;41.23
82858;BME280;72620;47.774;9.620;2023-09-07T09:26:25;96639.66;;;28.47;42.77
82858;BME280;72620;47.774;9.620;2023-09-07T09:28:56;96639.66;;;28.47;42.77
82858;BME280;72620;47.774;9.620;2023-09-07T09:31:23;96635.59;;;28.02;44.77
82858;BME280;72620;47.774;9.620;2023-09-07T09:33:51;96633.06;;;27.59;45.80
82858;BME280;72620;47.774;9.620;2023-09-07T09:36:20;96618.81;;;27.12;46.88
82858;BME280;72620;47.774;9.620;2023-09-07T09:38:49;96637.19;;;27.07;49.46
82858;BME280;72620;47.774;9.620;2023-09-07T09:41:20;96626.00;;;27.16;47.82
82858;BME280;72620;47.774;9.620;2023-09-07T09:43:50;96628.75;;;27.05;48.97
82858;BME280;72620;47.774;9.620;2023-09-07T09:46:21;96629.75;;;26.99;49.37
82858;BME280;72620;47.774;9.620;2023-09-07T09:48:51;96625.78;;;26.80;51.34
82858;BME280;72620;47.774;9.620;2023-09-07T09:51:20;96623.50;;;26.67;52.10
82858;BME280;72620;47.774;9.620;2023-09-07T09:53:48;96629.75;;;26.44;50.39
82858;BME280;72620;47.774;9.620;2023-09-07T09:56:17;96624.47;;;26.44;53.50
82858;BME280;72620;47.774;9.620;2023-09-07T09:58:44;96624.47;;;26.44;53.50
82858;BME280;72620;47.774;9.620;2023-09-07T10:01:12;96609.75;;;26.26;52.64
82858;BME280;72620;47.774;9.620;2023-09-07T10:03:45;96618.09;;;26.07;56.48
82858;BME280;72620;47.774;9.620;2023-09-07T10:06:23;96623.13;;;26.08;51.87
82858;BME280;72620;47.774;9.620;2023-09-07T10:08:58;96611.78;;;26.08;53.20
82858;BME280;72620;47.774;9.620;2023-09-07T10:11:34;96610.75;;;25.92;53.84
82858;BME280;72620;47.774;9.620;2023-09-07T10:14:06;96609.22;;;26.63;52.50
82858;BME280;72620;47.774;9.620;2023-09-07T10:16:45;96609.22;;;26.63;52.50
82858;BME280;72620;47.774;9.620;2023-09-07T10:19:19;96603.34;;;27.37;53.45
82858;BME280;72620;47.774;9.620;2023-09-07T10:21:49;96596.81;;;27.23;53.39
82858;BME280;72620;47.774;9.620;2023-09-07T10:24:31;96600.50;;;27.00;52.30
82858;BME280;72620;47.774;9.620;2023-09-07T10:27:03;96589.53;;;26.87;51.22
82858;BME280;72620;47.774;9.620;2023-09-07T10:29:51;96591.81;;;26.78;51.67
82858;BME280;72620;47.774;9.620;2023-09-07T10:32:22;96597.06;;;26.78;55.40
82858;BME280;72620;47.774;9.620;2023-09-07T10:34:50;96593.34;;;26.96;51.56
82858;BME280;72620;47.774;9.620;2023-09-07T10:37:17;96591.44;;;26.91;51.43
82858;BME280;72620;47.774;9.620;2023-09-07T10:39:45;96585.34;;;26.69;52.46
82858;BME280;72620;47.774;9.620;2023-09-07T10:42:25;96583.44;;;26.26;53.73
82858;BME280;72620;47.774;9.620;2023-09-07T10:44:53;96585.75;;;26.06;53.64
82858;BME280;72620;47.774;9.620;2023-09-07T10:47:21;96592.19;;;25.99;55.91
82858;BME280;72620;47.774;9.620;2023-09-07T10:49:48;96582.31;;;25.89;55.53
82858;BME280;72620;47.774;9.620;2023-09-07T10:52:16;96581.53;;;25.88;55.40
82858;BME280;72620;47.774;9.620;2023-09-07T10:54:43;96580.41;;;26.01;53.78
82858;BME280;72620;47.774;9.620;2023-09-07T10:57:11;96579.31;;;26.14;54.15
82858;BME280;72620;47.774;9.620;2023-09-07T10:59:45;96584.25;;;26.27;54.95
82858;BME280;72620;47.774;9.620;2023-09-07T11:02:14;96578.94;;;26.43;52.92
82858;BME280;72620;47.774;9.620;2023-09-07T11:04:42;96569.63;;;26.36;51.51
82858;BME280;72620;47.774;9.620;2023-09-07T11:07:10;96565.31;;;26.46;53.93
82858;BME280;72620;47.774;9.620;2023-09-07T11:09:42;96566.53;;;26.60;54.69
82858;BME280;72620;47.774;9.620;2023-09-07T11:12:13;96559.28;;;26.68;53.30
82858;BME280;72620;47.774;9.620;2023-09-07T11:14:42;96563.47;;;26.69;52.56
82858;BME280;72620;47.774;9.620;2023-09-07T11:17:10;96563.06;;;26.77;54.94
82858;BME280;72620;47.774;9.620;2023-09-07T11:19:37;96562.94;;;26.88;53.74
82858;BME280;72620;47.774;9.620;2023-09-07T11:22:04;96564.16;;;27.02;54.01
82858;BME280;72620;47.774;9.620;2023-09-07T11:24:34;96556.88;;;27.09;50.29
82858;BME280;72620;47.774;9.620;2023-09-07T11:27:02;96552.31;;;27.26;50.54
82858;BME280;72620;47.774;9.620;2023-09-07T11:29:32;96552.53;;;27.47;52.17
82858;BME280;72620;47.774;9.620;2023-09-07T11:32:10;96545.97;;;27.49;52.24
82858;BME280;72620;47.774;9.620;2023-09-07T11:34:49;96548.78;;;27.69;50.36
82858;BME280;72620;47.774;9.620;2023-09-07T11:37:23;96544.28;;;27.70;53.73
82858;BME280;72620;47.774;9.620;2023-09-07T11:39:52;96546.22;;;27.79;50.76
82858;BME280;72620;47.774;9.620;2023-09-07T11:42:19;96538.38;;;27.89;50.14
82858;BME280;72620;47.774;9.620;2023-09-07T11:44:47;96549.50;;;27.96;46.73
82858;BME280;72620;47.774;9.620;2023-09-07T11:47:14;96542.22;;;28.04;46.71
82858;BME280;72620;47.774;9.620;2023-09-07T11:49:41;96538.81;;;28.08;49.47
82858;BME280;72620;47.774;9.620;2023-09-07T11:52:08;96539.97;;;28.22;47.20
82858;BME280;72620;47.774;9.620;2023-09-07T11:54:36;96536.31;;;28.33;44.75
82858;BME280;72620;47.774;9.620;2023-09-07T11:57:04;96531.06;;;28.33;47.32
82858;BME280;72620;47.774;9.620;2023-09-07T11:59:31;96541.38;;;28.40;46.56
82858;BME280;72620;47.774;9.620;2023-09-07T12:02:13;96546.25;;;28.58;45.31
82858;BME280;72620;47.774;9.620;2023-09-07T12:04:44;96546.25;;;28.58;45.31
82858;BME280;72620;47.774;9.620;2023-09-07T12:07:11;96525.59;;;28.55;46.36
82858;BME280;72620;47.774;9.620;2023-09-07T12:09:38;96525.13;;;28.63;42.26
82858;BME280;72620;47.774;9.620;2023-09-07T12:12:07;96523.84;;;28.70;46.73
82858;BME280;72620;47.774;9.620;2023-09-07T12:14:34;96526.22;;;28.72;45.52
82858;BME280;72620;47.774;9.620;2023-09-07T12:17:02;96523.56;;;28.72;44.50
82858;BME280;72620;47.774;9.620;2023-09-07T12:19:30;96531.53;;;28.77;45.44
82858;BME280;72620;47.774;9.620;2023-09-07T12:21:57;96531.53;;;28.77;45.44
82858;BME280;72620;47.774;9.620;2023-09-07T12:24:24;96517.28;;;28.78;46.89
82858;BME280;72620;47.774;9.620;2023-09-07T12:26:51;96518.84;;;28.79;42.39
82858;BME280;72620;47.774;9.620;2023-09-07T12:29:18;96523.06;;;28.75;43.55
82858;BME280;72620;47.774;9.620;2023-09-07T12:31:47;96515.13;;;28.70;43.79
82858;BME280;72620;47.774;9.620;2023-09-07T12:34:14;96516.44;;;28.62;45.38
82858;BME280;72620;47.774;9.620;2023-09-07T12:36:41;96514.50;;;28.53;50.52
82858;BME280;72620;47.774;9.620;2023-09-07T12:39:08;96510.56;;;28.55;44.82
82858;BME280;72620;47.774;9.620;2023-09-07T12:41:39;96506.94;;;28.66;48.30
82858;BME280;72620;47.774;9.620;2023-09-07T12:44:06;96501.09;;;28.69;48.11
82858;BME280;72620;47.774;9.620;2023-09-07T12:46:34;96505.94;;;28.83;47.65
82858;BME280;72620;47.774;9.620;2023-09-07T12:49:02;96511.75;;;28.95;47.61
82858;BME280;72620;47.774;9.620;2023-09-07T12:51:30;96506.25;;;29.06;45.12
82858;BME280;72620;47.774;9.620;2023-09-07T12:53:57;96499.91;;;29.02;45.20
82858;BME280;72620;47.774;9.620;2023-09-07T12:56:24;96508.88;;;29.06;46.03
82858;BME280;72620;47.774;9.620;2023-09-07T12:58:52;96500.69;;;29.03;45.32
82858;BME280;72620;47.774;9.620;2023-09-07T13:01:19;96505.69;;;28.99;44.00
82858;BME280;72620;47.774;9.620;2023-09-07T13:03:47;96507.31;;;29.15;45.40
82858;BME280;72620;47.774;9.620;2023-09-07T13:06:14;96507.31;;;29.15;45.40
82858;BME280;72620;47.774;9.620;2023-09-07T13:08:44;96503.41;;;29.18;46.77